F/V Sanaga 2 — FMIL — position and weather

sailwx.info

Track history (hours):
 
Tides and Currents Weather Stations Pressure Air Temp Water Temp Dewpoint Dewpoint Depression Visibility Wind Speed Wind Dir Waves Ship Positions

F/V Sanaga 2

Last reported at 2017-Oct-18 20:30 UTC. Time now 2017-Oct-18 20:37 UTC.
Position N 47°29' W 003°54'.

Length 14 m.

Type: Fishing. MMSI: 228238600.

Date/timePositionNaut miles runAvg speedWind from/ knotsBaromVisibWave heightAir tempDewpointWater temp
2017-Oct-18 20:30N 47°29' W 003°54'5 8.2
2017-Oct-18 19:52N 47°24' W 003°55'3 8.5
2017-Oct-18 19:31N 47°21' W 003°55'9 5.3
2017-Oct-18 17:54N 47°12' W 003°56'1 3.3
2017-Oct-18 17:31N 47°11' W 003°56'2 3.3
2017-Oct-18 17:00N 47°09' W 003°55'3 3.3
2017-Oct-18 16:11N 47°07' W 003°54'1 3.3
2017-Oct-18 15:52N 47°06' W 003°53'2 3.3
2017-Oct-18 15:11N 47°05' W 003°50'1 3.7
2017-Oct-18 14:59N 47°04' W 003°49'3 2.6
2017-Oct-18 13:58N 47°03' W 003°46'2 3.2
2017-Oct-18 13:17N 47°04' W 003°43'1 3.2
2017-Oct-18 13:00N 47°03' W 003°41'2 3.3
2017-Oct-18 12:30N 47°03' W 003°39'2 2.5
2017-Oct-18 11:52N 47°01' W 003°41'1 3.5
2017-Oct-18 11:31N 47°02' W 003°42'2 3.5
2017-Oct-18 10:59N 47°03' W 003°45'0 0.4
2017-Oct-18 10:31N 47°02' W 003°44'2 1.7
2017-Oct-18 09:20N 47°02' W 003°42'1 3.3
2017-Oct-18 08:54N 47°03' W 003°43'1 3.3
2017-Oct-18 08:29N 47°04' W 003°45'4 2.4
2017-Oct-18 07:00N 47°01' W 003°41'2 3.1
2017-Oct-18 06:22N 47°03' W 003°39'2 2.6
2017-Oct-18 05:30N 47°04' W 003°42'2 3.2
2017-Oct-18 04:44N 47°03' W 003°46'1 3.3
2017-Oct-18 04:30N 47°03' W 003°47'2 3.1
2017-Oct-18 04:01N 47°01' W 003°47'3 3.2
2017-Oct-18 03:08N 46°59' W 003°45'1 3.4
2017-Oct-18 02:58N 46°58' W 003°44'2 3.4
2017-Oct-18 02:30N 46°58' W 003°42'3 3.3
2017-Oct-18 01:43N 46°58' W 003°38'1 2.0
2017-Oct-18 01:22N 46°58' W 003°38'1 3.2
2017-Oct-18 01:00N 46°59' W 003°38'2 3.2
2017-Oct-18 00:27N 47°01' W 003°37'1 3.0
2017-Oct-18 00:01N 47°02' W 003°38'2 3.5
2017-Oct-17 23:27N 47°01' W 003°41'5 3.4
2017-Oct-17 21:55N 46°56' W 003°38'9 0.6
2017-Oct-17 08:31N 47°03' W 003°45'1 3.1
2017-Oct-17 08:19N 47°03' W 003°46'1 3.1
2017-Oct-17 07:59N 47°04' W 003°47'1 1.8
2017-Oct-17 07:29N 47°05' W 003°48'1 1.8
2017-Oct-17 07:00N 47°05' W 003°49'2 3.0
2017-Oct-17 06:27N 47°06' W 003°51'1 3.0
2017-Oct-17 05:58N 47°07' W 003°53'2 3.2
2017-Oct-17 05:28N 47°08' W 003°55'2 3.5
2017-Oct-17 05:00N 47°09' W 003°55'2 3.5
2017-Oct-17 04:29N 47°11' W 003°56'2 3.4
2017-Oct-17 03:51N 47°13' W 003°55'1 3.4
2017-Oct-17 03:30N 47°14' W 003°53'2 3.4
2017-Oct-17 03:00N 47°15' W 003°51'2 3.8
2017-Oct-17 02:30N 47°16' W 003°49'4 8.1
2017-Oct-17 02:00N 47°20' W 003°50'4 8.1
2017-Oct-17 01:29N 47°25' W 003°51'4 7.8
2017-Oct-17 01:00N 47°28' W 003°52'4 7.8
2017-Oct-17 00:31N 47°32' W 003°52'4 7.7
2017-Oct-16 23:57N 47°36' W 003°53'4 7.7
2017-Oct-16 23:29N 47°40' W 003°54'5 7.7
2017-Oct-16 22:50N 47°45' W 003°55'3 7.8
2017-Oct-16 22:28N 47°48' W 003°56'4 7.7
2017-Oct-16 21:57N 47°52' W 003°55'  
2017-Oct-08 22:38N 47°45' W 003°55'4 8.2
2017-Oct-08 22:07N 47°41' W 003°54'1 8.2
2017-Oct-08 22:00N 47°40' W 003°54'4 8.1
2017-Oct-08 21:29N 47°36' W 003°53'4 8.1
2017-Oct-08 21:00N 47°32' W 003°53'4 7.9
2017-Oct-08 20:30N 47°28' W 003°53'  
Track history (hours):
 
Tides and Currents Weather Stations Pressure Air Temp Water Temp Dewpoint Dewpoint Depression Visibility Wind Speed Wind Dir Waves Ship Positions

F/V Sanaga 2

Last reported at 2017-Oct-18 20:30 UTC. Time now 2017-Oct-18 20:37 UTC.
Position N 47°29' W 003°54'.

Length 14 m.

Type: Fishing. MMSI: 228238600.

Date/timePositionNaut miles runAvg speedWind from/ knotsBaromVisibWave heightAir tempDewpointWater temp
2017-Oct-18 20:30N 47°29' W 003°54'5 8.2
2017-Oct-18 19:52N 47°24' W 003°55'3 8.5
2017-Oct-18 19:31N 47°21' W 003°55'9 5.3
2017-Oct-18 17:54N 47°12' W 003°56'1 3.3
2017-Oct-18 17:31N 47°11' W 003°56'2 3.3
2017-Oct-18 17:00N 47°09' W 003°55'3 3.3
2017-Oct-18 16:11N 47°07' W 003°54'1 3.3
2017-Oct-18 15:52N 47°06' W 003°53'2 3.3
2017-Oct-18 15:11N 47°05' W 003°50'1 3.7
2017-Oct-18 14:59N 47°04' W 003°49'3 2.6
2017-Oct-18 13:58N 47°03' W 003°46'2 3.2
2017-Oct-18 13:17N 47°04' W 003°43'1 3.2
2017-Oct-18 13:00N 47°03' W 003°41'2 3.3
2017-Oct-18 12:30N 47°03' W 003°39'2 2.5
2017-Oct-18 11:52N 47°01' W 003°41'1 3.5
2017-Oct-18 11:31N 47°02' W 003°42'2 3.5
2017-Oct-18 10:59N 47°03' W 003°45'0 0.4
2017-Oct-18 10:31N 47°02' W 003°44'2 1.7
2017-Oct-18 09:20N 47°02' W 003°42'1 3.3
2017-Oct-18 08:54N 47°03' W 003°43'1 3.3
2017-Oct-18 08:29N 47°04' W 003°45'4 2.4
2017-Oct-18 07:00N 47°01' W 003°41'2 3.1
2017-Oct-18 06:22N 47°03' W 003°39'2 2.6
2017-Oct-18 05:30N 47°04' W 003°42'2 3.2
2017-Oct-18 04:44N 47°03' W 003°46'1 3.3
2017-Oct-18 04:30N 47°03' W 003°47'2 3.1
2017-Oct-18 04:01N 47°01' W 003°47'3 3.2
2017-Oct-18 03:08N 46°59' W 003°45'1 3.4
2017-Oct-18 02:58N 46°58' W 003°44'2 3.4
2017-Oct-18 02:30N 46°58' W 003°42'3 3.3
2017-Oct-18 01:43N 46°58' W 003°38'1 2.0
2017-Oct-18 01:22N 46°58' W 003°38'1 3.2
2017-Oct-18 01:00N 46°59' W 003°38'2 3.2
2017-Oct-18 00:27N 47°01' W 003°37'1 3.0
2017-Oct-18 00:01N 47°02' W 003°38'2 3.5
2017-Oct-17 23:27N 47°01' W 003°41'5 3.4
2017-Oct-17 21:55N 46°56' W 003°38'9 0.6
2017-Oct-17 08:31N 47°03' W 003°45'1 3.1
2017-Oct-17 08:19N 47°03' W 003°46'1 3.1
2017-Oct-17 07:59N 47°04' W 003°47'1 1.8
2017-Oct-17 07:29N 47°05' W 003°48'1 1.8
2017-Oct-17 07:00N 47°05' W 003°49'2 3.0
2017-Oct-17 06:27N 47°06' W 003°51'1 3.0
2017-Oct-17 05:58N 47°07' W 003°53'2 3.2
2017-Oct-17 05:28N 47°08' W 003°55'2 3.5
2017-Oct-17 05:00N 47°09' W 003°55'2 3.5
2017-Oct-17 04:29N 47°11' W 003°56'2 3.4
2017-Oct-17 03:51N 47°13' W 003°55'1 3.4
2017-Oct-17 03:30N 47°14' W 003°53'2 3.4
2017-Oct-17 03:00N 47°15' W 003°51'2 3.8
2017-Oct-17 02:30N 47°16' W 003°49'4 8.1
2017-Oct-17 02:00N 47°20' W 003°50'4 8.1
2017-Oct-17 01:29N 47°25' W 003°51'4 7.8
2017-Oct-17 01:00N 47°28' W 003°52'4 7.8
2017-Oct-17 00:31N 47°32' W 003°52'4 7.7
2017-Oct-16 23:57N 47°36' W 003°53'4 7.7
2017-Oct-16 23:29N 47°40' W 003°54'5 7.7
2017-Oct-16 22:50N 47°45' W 003°55'3 7.8
2017-Oct-16 22:28N 47°48' W 003°56'4 7.7
2017-Oct-16 21:57N 47°52' W 003°55'  
2017-Oct-08 22:38N 47°45' W 003°55'4 8.2
2017-Oct-08 22:07N 47°41' W 003°54'1 8.2
2017-Oct-08 22:00N 47°40' W 003°54'4 8.1
2017-Oct-08 21:29N 47°36' W 003°53'4 8.1
2017-Oct-08 21:00N 47°32' W 003°53'4 7.9
2017-Oct-08 20:30N 47°28' W 003°53'  

Dump ship's entire track history